Terminal Aerodrome Forecast
Issued by NWS

Home | Current Version | Previous Version | Text Only | Print | Product List | Glossary On
Versions: 1 2 3 4 5 6 7 8 9 10 11 12
045
FTUS42 KTBW 241122
TAFPIE
TAF
KPIE 241122Z 2412/2512 VRB06KT P6SM FEW300
     FM241600 04006KT P6SM FEW040 SCT300
     FM242000 31008KT P6SM SCT050 SCT250
     FM250100 VRB06KT P6SM FEW050=

USA.gov is the U.S. government's official web portal to all federal, state and local government web resources and services.